Time;durP1;ratioP1;P1;durP2;ratioP2;P2;SDS_P1;SDS_P2;PMS_P1;PMS_P2;Temp;Humidity;BMP_temperature;BMP_pressure;BME280_temperature;BME280_humidity;BME280_pressure;Samples;Min_cycle;Max_cycle;Signal;HPM_P1;HPM_P2
2023/01/10 00:01:57;;;;;;;1.10;1.10;;;3.60;99.90;;;;;;5002981;28;20059;-89
2023/01/10 00:04:28;;;;;;;1.40;1.38;;;3.60;99.90;;;;;;4976641;28;20048;-90
2023/01/10 00:06:56;;;;;;;1.40;1.35;;;3.60;99.90;;;;;;4976479;28;20773;-91
2023/01/10 00:09:24;;;;;;;1.35;1.35;;;3.60;99.90;;;;;;4985469;28;20045;-87
2023/01/10 00:14:38;;;;;;;1.70;1.60;;;3.60;99.90;;;;;;4993405;28;20065;-90
2023/01/10 00:17:05;;;;;;;1.92;1.83;;;3.50;99.90;;;;;;4975705;28;20402;-89
2023/01/10 00:19:33;;;;;;;1.88;1.77;;;3.40;99.90;;;;;;4971916;28;20045;-87
2023/01/10 00:22:07;;;;;;;1.40;1.30;;;3.30;99.90;;;;;;5000037;28;20065;-89
2023/01/10 00:24:35;;;;;;;2.25;2.15;;;3.30;99.90;;;;;;5007389;28;20090;-91
2023/01/10 00:27:03;;;;;;;1.38;1.27;;;3.20;99.90;;;;;;5001606;28;20057;-89
2023/01/10 00:29:30;;;;;;;2.17;2.08;;;3.10;99.90;;;;;;4971817;28;20053;-89
2023/01/10 00:31:58;;;;;;;2.42;2.22;;;3.00;99.90;;;;;;5000635;28;20045;-88
2023/01/10 00:34:26;;;;;;;3.22;1.85;;;3.00;99.90;;;;;;4991898;28;20046;-90
2023/01/10 00:36:54;;;;;;;2.75;2.55;;;2.90;99.90;;;;;;4992448;28;20050;-90
2023/01/10 00:39:26;;;;;;;2.10;2.00;;;2.90;99.90;;;;;;5003358;28;20066;-88
2023/01/10 00:44:39;;;;;;;2.00;1.75;;;2.90;99.90;;;;;;4975505;28;19921;-89
2023/01/10 00:47:07;;;;;;;3.08;2.88;;;2.90;99.90;;;;;;4960064;28;20421;-90
2023/01/10 00:49:36;;;;;;;2.40;2.20;;;2.90;99.90;;;;;;4943415;28;20046;-87
2023/01/10 00:52:04;;;;;;;2.17;1.98;;;2.90;99.90;;;;;;4974964;28;20053;-91
2023/01/10 00:54:31;;;;;;;2.05;1.95;;;2.90;99.90;;;;;;4974393;28;20147;-89
2023/01/10 00:56:59;;;;;;;1.88;1.75;;;2.90;99.90;;;;;;4959201;28;20481;-88
2023/01/10 00:59:28;;;;;;;2.00;1.90;;;2.90;99.90;;;;;;4975030;28;20053;-88
2023/01/10 01:01:56;;;;;;;2.33;2.15;;;2.90;99.90;;;;;;4957716;28;20042;-89
2023/01/10 01:04:23;;;;;;;1.63;1.52;;;2.90;99.90;;;;;;4959614;28;20047;-88
2023/01/10 01:06:51;;;;;;;1.95;1.85;;;2.90;99.90;;;;;;4971489;28;20062;-88
2023/01/10 01:09:19;;;;;;;1.83;1.73;;;2.90;99.90;;;;;;4954783;28;20057;-90
2023/01/10 01:11:46;;;;;;;1.65;1.55;;;2.80;99.90;;;;;;4972771;28;20058;-90
2023/01/10 01:14:14;;;;;;;4.25;2.13;;;2.80;99.90;;;;;;4973690;28;20043;-89
2023/01/10 01:16:41;;;;;;;2.00;1.90;;;2.80;99.90;;;;;;4972807;28;20077;-89
2023/01/10 01:19:10;;;;;;;2.08;1.98;;;2.80;99.90;;;;;;4973555;28;20054;-90
2023/01/10 01:21:37;;;;;;;2.75;2.58;;;2.90;99.90;;;;;;4971304;28;20047;-89
2023/01/10 01:24:05;;;;;;;2.33;2.22;;;2.90;99.90;;;;;;4971460;28;20061;-89
2023/01/10 01:26:34;;;;;;;1.75;1.65;;;2.80;99.90;;;;;;4973778;28;20050;-90
2023/01/10 01:29:02;;;;;;;1.95;1.63;;;2.80;99.90;;;;;;4971235;28;20050;-90
2023/01/10 01:31:29;;;;;;;1.92;1.83;;;2.80;99.90;;;;;;4955009;28;20058;-89
2023/01/10 01:33:57;;;;;;;2.15;2.00;;;2.80;99.90;;;;;;4972729;28;20054;-88
2023/01/10 01:36:24;;;;;;;2.58;1.80;;;2.90;99.90;;;;;;4971924;28;20043;-89
2023/01/10 01:38:52;;;;;;;3.70;2.30;;;2.80;99.90;;;;;;4971541;28;20086;-91
2023/01/10 01:44:14;;;;;;;1.80;1.70;;;2.90;99.90;;;;;;4970691;28;20513;-89
2023/01/10 01:46:58;;;;;;;1.73;1.63;;;2.80;99.90;;;;;;4971531;28;20068;-89
2023/01/10 01:49:33;;;;;;;2.00;1.90;;;2.80;99.90;;;;;;4970504;28;20069;-88
2023/01/10 01:52:08;;;;;;;1.90;1.80;;;2.80;99.90;;;;;;4954497;28;20043;-89
2023/01/10 01:54:36;;;;;;;1.58;1.48;;;2.80;99.90;;;;;;4971031;28;20046;-91
2023/01/10 01:57:11;;;;;;;2.42;2.22;;;2.70;99.90;;;;;;4954483;28;20415;-88
2023/01/10 01:59:46;;;;;;;2.67;2.55;;;2.70;99.90;;;;;;4971898;28;20063;-90
2023/01/10 02:02:29;;;;;;;2.28;2.03;;;2.80;99.90;;;;;;4954797;28;20062;-89
2023/01/10 02:05:02;;;;;;;2.08;1.90;;;2.80;99.90;;;;;;4973657;28;20274;-89
2023/01/10 02:07:36;;;;;;;2.30;2.20;;;2.80;99.90;;;;;;4989773;28;20054;-89
2023/01/10 02:10:18;;;;;;;2.45;2.08;;;2.80;99.90;;;;;;4989805;28;20057;-88
2023/01/10 02:12:48;;;;;;;4.38;1.80;;;2.80;99.90;;;;;;4973739;28;20077;-89
2023/01/10 02:15:17;;;;;;;2.22;2.03;;;2.80;99.90;;;;;;4958687;28;20046;-88
2023/01/10 02:17:49;;;;;;;3.65;2.00;;;2.80;99.90;;;;;;4989669;28;20046;-88
2023/01/10 02:20:20;;;;;;;1.60;1.50;;;2.80;99.90;;;;;;4990544;28;20058;-88
2023/01/10 02:23:41;;;;;;;2.22;2.05;;;2.80;99.90;;;;;;4990998;28;20050;-89
2023/01/10 02:26:53;;;;;;;2.35;2.15;;;2.80;99.90;;;;;;4965087;28;20413;-90
2023/01/10 02:29:35;;;;;;;3.55;2.10;;;2.80;99.90;;;;;;4967184;28;20053;-89
2023/01/10 02:32:26;;;;;;;2.25;2.15;;;2.80;99.90;;;;;;4975463;28;20057;-90
2023/01/10 02:35:30;;;;;;;3.17;2.03;;;2.80;99.90;;;;;;5011052;28;20076;-88
2023/01/10 02:38:23;;;;;;;2.92;2.13;;;2.80;99.90;;;;;;4974613;28;20057;-89
2023/01/10 02:41:15;;;;;;;2.00;1.85;;;2.80;99.90;;;;;;4996114;28;20053;-89
2023/01/10 02:44:15;;;;;;;3.40;2.03;;;2.80;99.90;;;;;;4973762;28;20061;-88
2023/01/10 02:46:47;;;;;;;2.70;2.50;;;2.80;99.90;;;;;;4984002;28;20046;-88
2023/01/10 02:49:15;;;;;;;2.60;1.73;;;2.80;99.90;;;;;;4967618;28;20049;-88
2023/01/10 02:51:42;;;;;;;1.55;1.45;;;2.80;99.90;;;;;;4977583;28;20053;-89
2023/01/10 02:54:18;;;;;;;1.77;1.67;;;2.70;99.90;;;;;;4974830;28;20037;-89
2023/01/10 02:57:00;;;;;;;1.35;1.25;;;2.70;99.90;;;;;;4996111;28;20041;-89
2023/01/10 02:59:30;;;;;;;;;;;2.70;99.90;;;;;;4976940;28;20050;-89
2023/01/10 03:02:40;;;;;;;3.72;1.67;;;2.80;99.90;;;;;;4991221;28;19933;-90
2023/01/10 03:05:22;;;;;;;2.00;1.90;;;2.70;99.90;;;;;;4933818;28;20046;-88
2023/01/10 03:07:57;;;;;;;1.17;1.17;;;2.70;99.90;;;;;;4935009;28;20039;-88
2023/01/10 03:10:39;;;;;;;1.95;1.85;;;2.70;99.90;;;;;;4953924;28;20053;-89
2023/01/10 03:13:24;;;;;;;2.38;2.17;;;2.70;99.90;;;;;;4953766;28;20043;-87
2023/01/10 03:15:55;;;;;;;2.33;2.22;;;2.70;99.90;;;;;;4938127;28;20058;-88
2023/01/10 03:18:31;;;;;;;1.48;1.38;;;2.70;99.90;;;;;;4953564;28;20059;-88
2023/01/10 03:21:04;;;;;;;2.28;2.17;;;2.70;99.90;;;;;;4953784;28;20054;-88
2023/01/10 03:23:33;;;;;;;1.65;1.55;;;2.70;99.90;;;;;;4968717;28;20078;-88
2023/01/10 03:26:03;;;;;;;4.78;2.20;;;2.70;99.90;;;;;;4940152;28;20055;-88
2023/01/10 03:28:53;;;;;;;2.88;1.67;;;2.70;99.90;;;;;;4974908;28;20039;-88
2023/01/10 03:31:30;;;;;;;2.15;2.05;;;2.70;99.90;;;;;;4974782;28;20070;-88
2023/01/10 03:33:59;;;;;;;5.40;2.05;;;2.70;99.90;;;;;;4956882;28;20046;-88
2023/01/10 03:36:40;;;;;;;1.75;1.65;;;2.70;99.90;;;;;;4941833;28;20055;-89
2023/01/10 03:39:45;;;;;;;2.67;1.27;;;2.70;99.90;;;;;;4941324;28;20054;-89
2023/01/10 03:42:26;;;;;;;2.25;2.15;;;2.70;99.90;;;;;;4973537;28;20051;-88
2023/01/10 03:45:05;;;;;;;3.45;2.08;;;2.80;99.90;;;;;;4972033;28;20054;-89
2023/01/10 03:47:44;;;;;;;2.08;1.90;;;2.80;99.90;;;;;;4974571;28;20058;-89
2023/01/10 03:50:19;;;;;;;2.80;1.75;;;2.80;99.90;;;;;;4976090;28;20066;-87
2023/01/10 03:52:47;;;;;;;1.65;1.50;;;2.80;99.90;;;;;;4957604;28;20039;-89
2023/01/10 03:55:20;;;;;;;1.95;1.85;;;2.80;99.90;;;;;;4976356;28;20050;-86
2023/01/10 03:57:47;;;;;;;1.58;1.52;;;2.80;99.90;;;;;;4975571;28;20455;-89
2023/01/10 04:00:16;;;;;;;1.48;1.48;;;2.80;99.90;;;;;;4974651;28;20057;-88
2023/01/10 04:02:44;;;;;;;2.58;2.35;;;2.80;99.90;;;;;;4959762;28;20065;-90
2023/01/10 04:05:12;;;;;;;1.40;1.40;;;2.90;99.90;;;;;;4994858;28;20054;-90
2023/01/10 04:07:40;;;;;;;1.20;1.20;;;2.80;99.90;;;;;;4994860;28;20046;-90
2023/01/10 04:10:08;;;;;;;1.48;1.42;;;2.80;99.90;;;;;;4977622;28;20057;-88
2023/01/10 04:12:36;;;;;;;2.28;2.08;;;2.80;99.90;;;;;;4977508;28;20053;-88
2023/01/10 04:15:04;;;;;;;1.63;1.52;;;2.80;99.90;;;;;;4994875;28;20065;-88
2023/01/10 04:17:31;;;;;;;1.83;1.73;;;2.80;99.90;;;;;;4993747;28;20050;-87
2023/01/10 04:19:59;;;;;;;3.20;1.90;;;2.80;99.90;;;;;;4977852;28;20050;-88
2023/01/10 04:22:27;;;;;;;1.58;1.50;;;2.80;99.90;;;;;;4962557;28;20058;-88
2023/01/10 04:24:55;;;;;;;1.85;1.75;;;2.80;99.90;;;;;;4994197;28;20046;-89
2023/01/10 04:27:23;;;;;;;2.10;2.00;;;2.80;99.90;;;;;;4995991;28;20395;-90
2023/01/10 04:29:52;;;;;;;2.03;1.92;;;2.80;99.90;;;;;;4977752;28;20046;-90
2023/01/10 04:32:19;;;;;;;1.83;1.73;;;2.80;99.90;;;;;;5010267;28;20053;-88
2023/01/10 04:34:47;;;;;;;2.30;2.10;;;2.80;99.90;;;;;;5000391;28;20046;-89
2023/01/10 04:37:14;;;;;;;1.60;1.60;;;2.70;99.90;;;;;;5015491;28;20050;-90
2023/01/10 04:39:42;;;;;;;2.47;1.75;;;2.80;99.90;;;;;;4998845;28;20054;-88
2023/01/10 04:42:10;;;;;;;1.77;1.67;;;2.70;99.90;;;;;;5000126;28;20064;-90
2023/01/10 04:44:38;;;;;;;1.90;1.80;;;2.70;99.90;;;;;;5001974;28;20042;-88
2023/01/10 04:47:06;;;;;;;1.63;1.52;;;2.70;99.90;;;;;;4970089;28;20042;-87
2023/01/10 04:49:34;;;;;;;2.08;1.98;;;2.70;99.90;;;;;;5017958;28;20038;-88
2023/01/10 04:52:01;;;;;;;1.95;1.85;;;2.70;99.90;;;;;;5001329;28;20042;-89
2023/01/10 04:54:29;;;;;;;1.70;1.60;;;2.70;99.90;;;;;;5001071;28;20053;-88
2023/01/10 04:56:57;;;;;;;2.33;2.13;;;2.60;99.90;;;;;;5001510;28;20048;-90
2023/01/10 04:59:25;;;;;;;2.70;2.50;;;2.60;99.90;;;;;;5001868;28;20056;-86
2023/01/10 05:01:52;;;;;;;2.75;2.28;;;2.60;99.90;;;;;;5001544;28;20034;-89
2023/01/10 05:04:20;;;;;;;2.05;1.95;;;2.60;99.90;;;;;;4981984;28;20038;-89
2023/01/10 05:06:48;;;;;;;2.30;2.10;;;2.60;99.90;;;;;;4998625;28;20039;-88
2023/01/10 05:09:16;;;;;;;2.08;1.95;;;2.50;99.90;;;;;;4996978;28;20057;-89
2023/01/10 05:11:44;;;;;;;1.60;1.50;;;2.60;99.90;;;;;;4997718;28;20049;-90
2023/01/10 05:14:11;;;;;;;2.45;2.25;;;2.60;99.90;;;;;;4998220;28;20034;-90
2023/01/10 05:16:42;;;;;;;1.92;1.83;;;2.50;99.90;;;;;;4997816;28;20065;-88
2023/01/10 05:19:11;;;;;;;2.33;2.22;;;2.50;99.90;;;;;;4982625;28;20054;-88
2023/01/10 05:21:39;;;;;;;2.00;1.85;;;2.50;99.90;;;;;;4972406;28;20462;-88
2023/01/10 05:24:08;;;;;;;2.17;2.08;;;2.50;99.90;;;;;;4981893;28;20054;-89
2023/01/10 05:26:36;;;;;;;2.25;2.05;;;2.50;99.90;;;;;;5006331;28;20058;-88
2023/01/10 05:29:03;;;;;;;2.78;2.58;;;2.50;99.90;;;;;;4990610;28;20038;-90
2023/01/10 05:31:31;;;;;;;2.83;2.63;;;2.50;99.90;;;;;;4991282;28;20073;-89
2023/01/10 05:33:58;;;;;;;3.22;2.88;;;2.60;99.90;;;;;;4955238;28;20050;-88
2023/01/10 05:36:26;;;;;;;2.92;2.72;;;2.60;99.90;;;;;;4955148;28;20046;-90
2023/01/10 05:38:54;;;;;;;2.30;2.10;;;2.60;99.90;;;;;;4938532;28;20047;-88
2023/01/10 05:41:22;;;;;;;2.53;2.33;;;2.60;99.90;;;;;;4956369;28;20046;-89
2023/01/10 05:43:51;;;;;;;3.80;2.17;;;2.60;99.90;;;;;;4991914;28;20413;-89
2023/01/10 05:46:19;;;;;;;2.97;2.63;;;2.60;99.90;;;;;;4976029;28;20048;-89
2023/01/10 05:48:47;;;;;;;38.05;4.50;;;2.60;99.90;;;;;;4973118;28;20058;-89
2023/01/10 05:51:15;;;;;;;3.42;2.15;;;2.60;99.90;;;;;;4969712;28;20077;-90
2023/01/10 05:53:42;;;;;;;3.85;2.67;;;2.60;99.90;;;;;;4977817;28;20101;-88
2023/01/10 05:56:10;;;;;;;4.53;3.47;;;2.60;99.90;;;;;;5001213;28;20050;-87
2023/01/10 05:58:38;;;;;;;2.63;2.42;;;2.60;99.90;;;;;;4952871;28;20058;-88
2023/01/10 06:01:09;;;;;;;1.92;1.83;;;2.60;99.90;;;;;;4990643;28;20050;-88
2023/01/10 06:03:37;;;;;;;4.03;2.08;;;2.60;99.90;;;;;;4982273;28;20410;-88
2023/01/10 06:06:06;;;;;;;2.17;2.05;;;2.60;99.90;;;;;;4986133;28;20062;-87
2023/01/10 06:08:35;;;;;;;5.65;2.38;;;2.60;99.90;;;;;;4984498;28;20066;-88
2023/01/10 06:11:04;;;;;;;2.17;1.85;;;2.60;99.90;;;;;;4990915;28;20117;-88
2023/01/10 06:13:32;;;;;;;1.73;1.55;;;2.60;99.90;;;;;;4995186;28;20438;-88
2023/01/10 06:16:00;;;;;;;2.63;2.42;;;2.60;99.90;;;;;;4965335;28;20041;-90
2023/01/10 06:18:27;;;;;;;2.47;2.28;;;2.60;99.90;;;;;;4990407;28;20073;-91
2023/01/10 06:20:59;;;;;;;3.80;2.72;;;2.60;99.90;;;;;;4990056;28;20046;-87
2023/01/10 06:23:29;;;;;;;3.92;2.33;;;2.50;99.90;;;;;;4989495;28;20073;-88
2023/01/10 06:25:56;;;;;;;2.30;2.20;;;2.50;99.90;;;;;;4976848;28;20054;-89
2023/01/10 06:28:24;;;;;;;2.42;2.13;;;2.40;99.90;;;;;;4986219;28;20046;-88
2023/01/10 06:30:51;;;;;;;2.88;1.75;;;2.40;99.90;;;;;;4977086;28;20053;-87
2023/01/10 06:33:19;;;;;;;4.50;2.33;;;2.50;99.90;;;;;;4998994;28;20411;-89
2023/01/10 06:35:47;;;;;;;4.43;2.58;;;2.40;99.90;;;;;;4984307;28;20045;-88
2023/01/10 06:38:15;;;;;;;2.72;2.53;;;2.50;99.90;;;;;;5008568;28;20054;-89
2023/01/10 06:40:43;;;;;;;3.17;2.90;;;2.50;99.90;;;;;;4989433;28;20418;-88
2023/01/10 06:43:10;;;;;;;2.08;1.88;;;2.60;99.90;;;;;;4989208;28;20077;-87
2023/01/10 06:45:38;;;;;;;3.33;3.03;;;2.60;99.90;;;;;;4992720;28;20041;-88
2023/01/10 06:48:06;;;;;;;3.30;2.42;;;2.60;99.90;;;;;;4980108;28;20063;-88
2023/01/10 06:50:33;;;;;;;2.63;2.53;;;2.60;99.90;;;;;;4979135;28;20038;-86
2023/01/10 06:53:03;;;;;;;4.22;3.58;;;2.60;99.90;;;;;;4989862;28;20093;-88
2023/01/10 06:55:31;;;;;;;2.63;2.42;;;2.70;99.90;;;;;;4992883;28;20045;-87
2023/01/10 06:58:01;;;;;;;2.90;2.60;;;2.70;99.90;;;;;;4989528;28;20088;-87
2023/01/10 07:00:30;;;;;;;3.05;2.85;;;2.70;99.90;;;;;;4955700;28;20050;-87
2023/01/10 07:02:58;;;;;;;2.60;2.42;;;2.60;99.90;;;;;;4975342;28;20054;-86
2023/01/10 07:05:26;;;;;;;2.80;2.60;;;2.60;99.90;;;;;;4957880;28;20073;-86
2023/01/10 07:07:54;;;;;;;3.13;2.83;;;2.60;99.90;;;;;;4956218;28;20058;-87
2023/01/10 07:10:22;;;;;;;3.78;2.75;;;2.60;99.90;;;;;;4962290;28;20054;-87
2023/01/10 07:12:50;;;;;;;2.28;2.15;;;2.50;99.90;;;;;;4985607;28;20054;-87
2023/01/10 07:15:18;;;;;;;2.83;2.63;;;2.50;99.90;;;;;;5014089;28;20062;-89
2023/01/10 07:17:46;;;;;;;2.58;2.40;;;2.50;99.90;;;;;;5012333;28;20060;-90
2023/01/10 07:20:13;;;;;;;2.78;2.60;;;2.60;99.90;;;;;;4981779;28;20061;-88
2023/01/10 07:22:41;;;;;;;3.38;3.08;;;2.50;99.90;;;;;;4977510;28;20053;-89
2023/01/10 07:25:09;;;;;;;2.22;2.13;;;2.40;99.90;;;;;;4993791;28;20050;-89
2023/01/10 07:27:38;;;;;;;2.53;2.42;;;2.40;99.90;;;;;;4970503;28;20072;-88
2023/01/10 07:30:07;;;;;;;2.22;2.03;;;2.40;99.90;;;;;;4974332;28;20054;-89
2023/01/10 07:32:35;;;;;;;2.85;2.58;;;2.50;99.90;;;;;;4974103;28;20058;-89
2023/01/10 07:35:03;;;;;;;2.38;2.17;;;2.40;99.90;;;;;;4989890;28;20058;-88
2023/01/10 07:37:31;;;;;;;2.72;2.53;;;2.40;99.90;;;;;;4992786;28;20046;-88
2023/01/10 07:39:58;;;;;;;2.67;2.40;;;2.40;99.90;;;;;;4968774;28;20054;-89
2023/01/10 07:42:26;;;;;;;2.88;2.67;;;2.40;99.90;;;;;;4953390;28;20061;-89
2023/01/10 07:44:54;;;;;;;2.42;2.33;;;2.30;99.90;;;;;;4977274;28;20035;-88
2023/01/10 07:47:22;;;;;;;3.10;2.90;;;2.40;99.90;;;;;;5006050;28;20057;-87
2023/01/10 07:49:50;;;;;;;3.08;2.80;;;2.40;99.90;;;;;;5007075;28;20061;-88
2023/01/10 07:52:18;;;;;;;2.63;2.42;;;2.40;99.90;;;;;;5012212;28;20402;-87
2023/01/10 07:54:46;;;;;;;3.72;3.42;;;2.40;99.90;;;;;;4996056;28;20057;-89
2023/01/10 07:57:14;;;;;;;3.67;3.40;;;2.40;99.90;;;;;;4981645;28;20050;-89
2023/01/10 07:59:42;;;;;;;4.20;3.03;;;2.40;99.90;;;;;;4975642;28;20066;-89
2023/01/10 08:02:10;;;;;;;3.10;2.90;;;2.50;99.90;;;;;;4993833;28;20058;-89
2023/01/10 08:04:38;;;;;;;3.35;3.05;;;2.50;99.90;;;;;;4959510;28;20058;-85
2023/01/10 08:07:05;;;;;;;3.33;3.03;;;2.50;99.90;;;;;;4973169;28;20054;-89
2023/01/10 08:09:33;;;;;;;2.20;2.08;;;2.50;99.90;;;;;;4981083;28;20414;-88
2023/01/10 08:12:02;;;;;;;3.72;3.38;;;2.50;99.90;;;;;;4970752;28;20054;-88
2023/01/10 08:14:30;;;;;;;3.40;3.20;;;2.50;99.90;;;;;;4974910;28;20782;-87
2023/01/10 08:16:57;;;;;;;3.65;3.40;;;2.50;99.90;;;;;;4962910;28;20046;-87
2023/01/10 08:19:25;;;;;;;3.13;2.83;;;2.50;99.90;;;;;;4992655;28;20053;-88
2023/01/10 08:21:54;;;;;;;3.13;2.80;;;2.50;99.90;;;;;;4993671;28;20039;-87
2023/01/10 08:24:21;;;;;;;2.42;2.22;;;2.50;99.90;;;;;;4974124;28;20049;-89
2023/01/10 08:26:49;;;;;;;2.88;2.67;;;2.60;99.90;;;;;;4975716;28;20766;-89
2023/01/10 08:29:17;;;;;;;3.47;3.17;;;2.60;99.90;;;;;;4992742;28;20819;-89
2023/01/10 08:31:44;;;;;;;4.22;3.92;;;2.60;99.90;;;;;;4975121;28;20046;-88
2023/01/10 08:34:13;;;;;;;2.60;2.40;;;2.60;99.90;;;;;;4993421;28;20055;-88
2023/01/10 08:36:41;;;;;;;4.05;2.60;;;2.70;99.90;;;;;;4975549;28;20054;-87
2023/01/10 08:39:09;;;;;;;2.80;2.65;;;2.70;99.90;;;;;;4991447;28;20047;-88
2023/01/10 08:41:39;;;;;;;3.80;3.55;;;2.80;99.90;;;;;;4974526;28;20050;-87
2023/01/10 08:44:07;;;;;;;3.80;3.50;;;2.90;99.90;;;;;;4992405;28;20043;-87
2023/01/10 08:46:35;;;;;;;3.50;3.30;;;2.90;99.90;;;;;;4992190;28;20039;-88
2023/01/10 08:49:03;;;;;;;4.35;3.38;;;2.90;99.90;;;;;;4992550;28;20042;-88
2023/01/10 08:51:31;;;;;;;4.30;2.80;;;2.90;99.90;;;;;;4975071;28;20050;-88
2023/01/10 08:53:59;;;;;;;4.25;3.95;;;2.90;99.90;;;;;;4989918;28;20042;-87
2023/01/10 08:56:29;;;;;;;4.18;3.83;;;2.90;99.90;;;;;;4992707;28;20039;-88
2023/01/10 08:58:57;;;;;;;4.28;2.47;;;2.90;99.90;;;;;;4992939;28;20042;-89
2023/01/10 09:01:25;;;;;;;3.50;2.80;;;3.00;99.90;;;;;;4990668;28;20054;-89
2023/01/10 09:03:53;;;;;;;3.55;3.25;;;2.90;99.90;;;;;;4974474;28;20034;-86
2023/01/10 09:06:21;;;;;;;2.42;2.22;;;3.00;99.90;;;;;;4990987;28;20054;-88
2023/01/10 09:08:49;;;;;;;4.60;3.83;;;2.90;99.90;;;;;;4990432;28;20050;-88
2023/01/10 09:11:17;;;;;;;3.95;3.08;;;3.00;99.90;;;;;;4974405;28;20065;-88
2023/01/10 09:13:49;;;;;;;5.95;3.40;;;3.00;99.90;;;;;;4992321;28;20072;-88
2023/01/10 09:16:18;;;;;;;2.65;2.47;;;3.00;99.90;;;;;;4974494;28;20050;-89
2023/01/10 09:18:47;;;;;;;4.25;2.67;;;3.00;99.90;;;;;;4991982;28;20054;-88
2023/01/10 09:21:21;;;;;;;2.63;2.42;;;3.00;99.90;;;;;;4974888;28;20385;-89
2023/01/10 09:23:48;;;;;;;4.78;3.55;;;3.00;99.90;;;;;;4989941;28;20050;-89
2023/01/10 09:26:16;;;;;;;3.33;3.13;;;3.00;99.90;;;;;;4958498;28;20073;-88
2023/01/10 09:28:44;;;;;;;4.72;2.75;;;3.10;99.90;;;;;;4991937;28;20050;-87
2023/01/10 09:31:15;;;;;;;4.15;3.22;;;3.10;99.90;;;;;;4991706;28;20069;-89
2023/01/10 09:33:43;;;;;;;3.55;3.25;;;3.10;99.90;;;;;;4973281;28;20046;-87
2023/01/10 09:36:14;;;;;;;4.07;3.78;;;3.20;99.90;;;;;;4991130;28;20053;-88
2023/01/10 09:38:42;;;;;;;4.43;4.10;;;3.10;99.90;;;;;;4957939;28;20062;-85
2023/01/10 09:41:26;;;;;;;14.15;3.20;;;3.20;99.90;;;;;;4957685;28;20042;-88
2023/01/10 09:44:04;;;;;;;4.35;3.38;;;3.20;99.90;;;;;;4974166;28;20034;-88
2023/01/10 09:46:36;;;;;;;4.80;3.38;;;3.30;99.90;;;;;;4991510;28;20057;-87
2023/01/10 09:49:17;;;;;;;4.13;3.75;;;3.30;99.90;;;;;;4974333;28;20053;-89
2023/01/10 09:51:48;;;;;;;4.50;4.10;;;3.30;99.90;;;;;;4975397;28;20051;-89
2023/01/10 09:54:18;;;;;;;;;;;3.30;99.90;;;;;;4987864;28;20057;-91
2023/01/10 09:56:46;;;;;;;6.28;4.20;;;3.30;99.90;;;;;;5012853;28;19921;-85
2023/01/10 09:59:20;;;;;;;3.40;3.00;;;3.30;99.90;;;;;;4995184;28;20056;-87
2023/01/10 10:01:53;;;;;;;3.47;3.17;;;3.40;99.90;;;;;;4994695;28;20037;-88
2023/01/10 10:04:34;;;;;;;2.75;2.60;;;3.40;99.90;;;;;;4995718;28;20046;-87
2023/01/10 10:07:04;;;;;;;3.92;3.03;;;3.40;99.90;;;;;;4975334;28;20054;-91
2023/01/10 10:09:34;;;;;;;2.10;2.00;;;3.30;99.90;;;;;;4990261;28;20046;-89
2023/01/10 10:12:23;;;;;;;3.70;2.67;;;3.20;99.90;;;;;;4975173;28;20054;-88
2023/01/10 10:15:16;;;;;;;5.28;2.35;;;3.20;99.90;;;;;;4976083;28;20057;-87
2023/01/10 10:17:54;;;;;;;8.80;2.38;;;3.10;99.90;;;;;;4959689;28;20045;-90
2023/01/10 10:20:26;;;;;;;6.53;2.58;;;3.00;99.90;;;;;;4990980;28;20049;-89
2023/01/10 10:23:17;;;;;;;6.70;2.75;;;2.90;99.90;;;;;;4992875;28;20053;-87
2023/01/10 10:25:54;;;;;;;3.72;2.13;;;2.90;99.90;;;;;;4993893;28;20045;-88
2023/01/10 10:28:57;;;;;;;4.00;2.17;;;2.90;99.90;;;;;;4994008;28;20072;-89
2023/01/10 10:31:43;;;;;;;4.30;2.97;;;2.80;99.90;;;;;;4968620;28;20078;-91
2023/01/10 10:34:35;;;;;;;5.78;2.75;;;2.80;99.90;;;;;;4979320;28;20720;-92
2023/01/10 10:37:21;;;;;;;2.05;1.95;;;2.90;99.90;;;;;;4996436;28;20049;-89
2023/01/10 10:40:07;;;;;;;2.08;1.98;;;3.00;99.90;;;;;;4980266;28;20034;-88
2023/01/10 10:42:39;;;;;;;2.47;2.28;;;3.00;99.90;;;;;;4996596;28;20039;-89
2023/01/10 10:45:22;;;;;;;2.88;2.28;;;3.10;99.90;;;;;;4996865;28;20047;-89
2023/01/10 10:48:10;;;;;;;2.33;2.22;;;3.10;99.90;;;;;;4996608;28;20027;-90
2023/01/10 10:50:53;;;;;;;2.90;2.72;;;3.20;99.90;;;;;;4961231;28;20051;-90
2023/01/10 10:53:21;;;;;;;3.05;2.85;;;3.30;99.90;;;;;;4979254;28;20035;-90
2023/01/10 10:55:49;;;;;;;3.25;2.50;;;3.30;99.90;;;;;;4980219;28;20061;-90
2023/01/10 10:58:17;;;;;;;4.20;2.50;;;3.40;99.90;;;;;;4981106;28;20034;-90
2023/01/10 11:00:46;;;;;;;7.85;2.85;;;3.50;99.90;;;;;;4996902;28;20039;-89
2023/01/10 11:03:40;;;;;;;3.00;2.78;;;3.60;99.90;;;;;;5009144;28;20057;-90
2023/01/10 11:06:09;;;;;;;4.28;3.97;;;3.60;99.90;;;;;;4964777;28;20027;-91
2023/01/10 11:08:41;;;;;;;3.90;2.63;;;3.70;99.90;;;;;;4992241;28;20042;-90
2023/01/10 11:11:34;;;;;;;5.07;2.60;;;3.80;99.90;;;;;;4996620;28;20607;-92
2023/01/10 11:14:07;;;;;;;5.07;3.00;;;3.90;99.90;;;;;;4994567;28;20041;-91
2023/01/10 11:16:40;;;;;;;2.90;2.70;;;3.90;99.90;;;;;;4995538;28;20034;-92
2023/01/10 11:19:07;;;;;;;10.02;2.42;;;3.90;99.90;;;;;;4972807;28;20043;-93
2023/01/10 11:21:38;;;;;;;2.42;2.25;;;4.00;99.90;;;;;;4967580;28;20055;-90
2023/01/10 11:24:53;;;;;;;3.15;2.42;;;4.00;99.90;;;;;;4969746;28;20498;-91
2023/01/10 11:27:23;;;;;;;1.95;1.63;;;4.00;99.90;;;;;;4910842;28;20058;-93
2023/01/10 11:29:55;;;;;;;6.72;2.72;;;4.10;99.90;;;;;;4955205;28;20522;-89
2023/01/10 11:32:38;;;;;;;3.80;2.65;;;4.00;99.90;;;;;;4970463;28;20051;-92
2023/01/10 11:35:26;;;;;;;5.07;1.63;;;4.00;99.90;;;;;;4957503;28;20050;-93
2023/01/10 11:38:16;;;;;;;3.47;2.88;;;4.00;99.90;;;;;;4978799;28;20039;-92
2023/01/10 11:40:55;;;;;;;8.13;2.40;;;4.00;99.90;;;;;;4973584;28;20049;-92
2023/01/10 11:43:33;;;;;;;2.63;2.42;;;4.00;99.90;;;;;;4967562;28;20047;-93
2023/01/10 11:46:12;;;;;;;1.45;1.45;;;4.00;99.90;;;;;;4975791;28;20050;-93
2023/01/10 11:49:00;;;;;;;2.85;1.48;;;3.90;99.90;;;;;;4996690;28;20065;-94
2023/01/10 11:51:38;;;;;;;4.70;2.50;;;3.90;99.90;;;;;;4995666;28;20055;-95
2023/01/10 11:54:16;;;;;;;6.80;2.42;;;3.90;99.90;;;;;;4981649;28;20076;-92
2023/01/10 11:56:55;;;;;;;23.63;2.38;;;3.80;99.90;;;;;;4997634;28;20035;-90
2023/01/10 11:59:23;;;;;;;1.60;1.48;;;3.80;99.90;;;;;;4994892;28;20057;-88
2023/01/10 12:02:07;;;;;;;1.88;1.75;;;3.90;99.90;;;;;;4960297;28;20058;-94
2023/01/10 12:04:42;;;;;;;1.63;1.52;;;3.90;99.90;;;;;;4991917;28;20053;-95
2023/01/10 12:07:11;;;;;;;9.32;2.70;;;3.90;99.90;;;;;;4976055;28;20054;-92
2023/01/10 12:09:43;;;;;;;1.17;1.13;;;4.00;99.90;;;;;;4989900;28;20046;-94
2023/01/10 12:12:17;;;;;;;7.63;2.38;;;4.00;99.90;;;;;;4973627;28;20046;-91
2023/01/10 12:14:45;;;;;;;1.13;1.13;;;3.90;99.90;;;;;;4971033;28;20046;-89
2023/01/10 12:17:29;;;;;;;2.10;1.90;;;3.90;99.90;;;;;;4989708;28;20530;-90
2023/01/10 12:20:03;;;;;;;7.15;3.00;;;3.90;99.90;;;;;;4956882;28;20499;-93
2023/01/10 12:22:39;;;;;;;5.45;1.88;;;4.00;99.90;;;;;;4984328;28;20088;-91
2023/01/10 12:25:37;;;;;;;6.68;2.88;;;4.00;99.90;;;;;;4991906;28;20046;-90
2023/01/10 12:28:24;;;;;;;1.65;1.55;;;4.00;99.90;;;;;;4973576;28;20038;-93
2023/01/10 12:30:54;;;;;;;2.20;2.10;;;4.00;99.90;;;;;;4959733;28;20050;-91
2023/01/10 12:33:27;;;;;;;3.78;1.88;;;4.00;99.90;;;;;;4986514;28;20038;-91
2023/01/10 12:36:05;;;;;;;4.90;2.58;;;4.10;99.90;;;;;;4993928;28;20053;-90
2023/01/10 12:39:05;;;;;;;2.58;2.47;;;4.10;99.90;;;;;;4993424;28;20068;-92
2023/01/10 12:44:36;;;;;;;4.93;2.05;;;4.00;99.90;;;;;;4993337;28;20509;-94
2023/01/10 12:47:19;;;;;;;1.77;1.42;;;4.00;99.90;;;;;;4993735;28;20061;-91
2023/01/10 12:49:57;;;;;;;2.97;2.20;;;4.00;99.90;;;;;;4975819;28;20038;-91
2023/01/10 12:52:44;;;;;;;2.33;1.95;;;3.90;99.90;;;;;;4996511;28;20581;-93
2023/01/10 12:55:17;;;;;;;2.53;1.08;;;3.90;99.90;;;;;;5000456;28;20053;-92
2023/01/10 12:57:52;;;;;;;4.53;2.17;;;4.00;99.90;;;;;;4995112;28;20046;-93
2023/01/10 13:00:28;;;;;;;7.40;2.72;;;4.10;99.90;;;;;;4996428;28;20070;-93
2023/01/10 13:03:11;;;;;;;4.85;1.42;;;4.20;99.90;;;;;;4998524;28;20057;-93
2023/01/10 13:05:40;;;;;;;1.88;1.77;;;4.30;99.90;;;;;;4988857;28;20042;-90
2023/01/10 13:08:14;;;;;;;2.35;2.15;;;4.40;99.90;;;;;;4993042;28;20072;-91
2023/01/10 13:10:48;;;;;;;2.10;1.95;;;4.40;99.90;;;;;;4975524;28;20058;-92
2023/01/10 13:13:39;;;;;;;8.02;2.15;;;4.40;99.90;;;;;;4996562;28;20034;-93
2023/01/10 13:16:38;;;;;;;2.90;2.17;;;4.30;99.90;;;;;;4992574;28;20046;-93
2023/01/10 13:19:08;;;;;;;1.40;1.35;;;4.40;99.90;;;;;;4991850;28;20065;-92
2023/01/10 13:21:41;;;;;;;1.88;1.75;;;4.30;99.90;;;;;;4984258;28;20050;-92
2023/01/10 13:24:22;;;;;;;6.38;1.65;;;4.20;99.90;;;;;;4999838;28;20061;-91
2023/01/10 13:26:59;;;;;;;2.05;1.95;;;4.30;99.90;;;;;;4970005;28;20076;-91
2023/01/10 13:29:36;;;;;;;2.60;1.85;;;4.30;99.90;;;;;;4999613;28;20042;-92
2023/01/10 13:32:22;;;;;;;1.95;1.85;;;4.30;99.90;;;;;;5004058;28;20050;-93
2023/01/10 13:34:51;;;;;;;9.48;2.03;;;4.30;99.90;;;;;;5009841;28;20072;-90
2023/01/10 13:37:32;;;;;;;2.00;1.83;;;4.30;99.90;;;;;;4992846;28;20041;-91
2023/01/10 13:40:00;;;;;;;2.58;1.85;;;4.30;99.90;;;;;;4995159;28;20042;-91